createdAt,value
2023-02-18T00:01:57.885Z,99884.94
2023-02-18T00:04:27.223Z,99879.50
2023-02-18T00:06:56.684Z,99868.00
2023-02-18T00:09:25.943Z,99853.13
2023-02-18T00:11:55.441Z,99852.22
2023-02-18T00:14:24.742Z,99835.53
2023-02-18T00:16:54.092Z,99797.53
2023-02-18T00:19:24.846Z,99829.75
2023-02-18T00:21:54.155Z,99811.28
2023-02-18T00:24:23.560Z,99815.72
2023-02-18T00:26:53.523Z,99780.56
2023-02-18T00:29:22.826Z,99766.22
2023-02-18T00:31:52.224Z,99781.34
2023-02-18T00:34:21.522Z,99777.00
2023-02-18T00:36:52.090Z,99775.16
2023-02-18T00:39:21.020Z,99767.69
2023-02-18T00:41:50.276Z,99682.63
2023-02-18T00:44:19.474Z,99726.44
2023-02-18T00:46:49.924Z,99741.53
2023-02-18T00:49:19.251Z,99729.78
2023-02-18T00:51:48.346Z,99720.63
2023-02-18T00:54:18.775Z,99705.22
2023-02-18T00:56:48.795Z,99669.56
2023-02-18T00:59:17.789Z,99697.88
2023-02-18T01:01:47.075Z,99675.09
2023-02-18T01:04:16.243Z,99679.69
2023-02-18T01:06:45.692Z,99663.06
2023-02-18T01:09:14.892Z,99640.72
2023-02-18T01:11:45.715Z,99542.63
2023-02-18T01:14:15.141Z,99625.84
2023-02-18T01:16:44.765Z,99637.69
2023-02-18T01:19:14.134Z,99627.19
2023-02-18T01:21:43.221Z,99618.72
2023-02-18T01:24:12.342Z,99602.78
2023-02-18T01:26:41.690Z,99596.97
2023-02-18T01:29:12.019Z,99582.16
2023-02-18T01:31:42.771Z,99581.22
2023-02-18T01:34:15.270Z,99533.78
2023-02-18T01:36:44.708Z,99567.66
2023-02-18T01:39:13.943Z,99573.09
2023-02-18T01:41:43.439Z,99561.72
2023-02-18T01:44:17.870Z,99541.63
2023-02-18T01:46:48.303Z,99533.06
2023-02-18T01:49:20.629Z,99528.56
2023-02-18T01:51:53.356Z,99515.59
2023-02-18T01:54:28.474Z,99502.75
2023-02-18T01:57:01.353Z,99473.25
2023-02-18T01:59:34.902Z,99502.50
2023-02-18T02:02:04.729Z,99489.06
2023-02-18T02:04:33.963Z,99489.25
2023-02-18T02:07:03.440Z,99467.81
2023-02-18T02:09:50.200Z,99476.31
2023-02-18T02:12:52.800Z,99483.66
2023-02-18T02:15:35.199Z,99465.94
2023-02-18T02:19:03.819Z,99458.66
2023-02-18T02:22:19.225Z,99445.84
2023-02-18T02:25:38.347Z,99439.09
2023-02-18T02:28:46.045Z,99423.59
2023-02-18T02:32:13.234Z,99411.53
2023-02-18T02:35:02.876Z,99410.84
2023-02-18T02:37:38.722Z,99364.34
2023-02-18T02:40:19.921Z,99387.56
2023-02-18T02:43:33.684Z,99390.50
2023-02-18T02:46:21.579Z,99383.84
2023-02-18T02:49:00.745Z,99385.81
2023-02-18T02:51:34.682Z,99375.81
2023-02-18T02:54:19.232Z,99364.91
2023-02-18T02:56:49.367Z,99367.94
2023-02-18T02:59:26.210Z,99351.94
2023-02-18T03:02:33.220Z,99360.94
2023-02-18T03:05:42.256Z,99352.50
2023-02-18T03:08:26.988Z,99344.03
2023-02-18T03:11:01.536Z,99334.91
2023-02-18T03:13:43.956Z,99309.72
2023-02-18T03:16:27.625Z,99332.94
2023-02-18T03:19:07.166Z,99329.38
2023-02-18T03:21:42.659Z,99308.00
2023-02-18T03:24:17.824Z,99322.03
2023-02-18T03:26:50.656Z,99294.94
2023-02-18T03:29:22.495Z,99303.59
2023-02-18T03:31:57.091Z,99294.72
2023-02-18T03:34:31.133Z,99290.81
2023-02-18T03:37:02.461Z,99297.00
2023-02-18T03:39:35.474Z,99274.00
2023-02-18T03:42:07.484Z,99269.44
2023-02-18T03:44:36.949Z,99254.72
2023-02-18T03:47:06.215Z,99255.25
2023-02-18T03:49:35.367Z,99249.34
2023-02-18T03:52:04.727Z,99231.91
2023-02-18T03:54:35.209Z,99226.84
2023-02-18T03:57:04.647Z,99160.38
2023-02-18T03:59:33.680Z,99204.56
2023-02-18T04:02:03.618Z,99208.97
2023-02-18T04:04:33.440Z,99161.19
2023-02-18T04:07:02.782Z,99202.94
2023-02-18T04:09:32.262Z,99182.66
2023-02-18T04:12:02.782Z,99185.53
2023-02-18T04:14:32.192Z,99172.91
2023-02-18T04:17:01.541Z,99172.09
2023-02-18T04:19:30.728Z,99174.34
2023-02-18T04:21:59.779Z,99170.06
2023-02-18T04:24:29.076Z,99141.47
2023-02-18T04:26:58.224Z,99142.50
2023-02-18T04:29:28.706Z,99154.00
2023-02-18T04:31:58.051Z,99115.19
2023-02-18T04:34:27.221Z,99078.75
2023-02-18T04:36:57.598Z,99128.09
2023-02-18T04:39:26.862Z,99135.25
2023-02-18T04:41:56.197Z,99123.91
2023-02-18T04:44:25.399Z,99130.19
2023-02-18T04:46:55.789Z,99115.69
2023-02-18T04:49:25.265Z,99082.78
2023-02-18T04:51:54.441Z,99109.78
2023-02-18T04:54:23.874Z,99118.66
2023-02-18T04:56:53.492Z,99111.06
2023-02-18T04:59:23.056Z,99100.44
2023-02-18T05:01:52.270Z,99082.81
2023-02-18T05:04:22.786Z,99070.03
2023-02-18T05:06:51.798Z,99064.69
2023-02-18T05:09:21.776Z,99074.16
2023-02-18T05:11:51.725Z,99063.41
2023-02-18T05:14:20.855Z,99055.63
2023-02-18T05:16:49.908Z,99051.69
2023-02-18T05:19:19.134Z,99041.47
2023-02-18T05:21:49.918Z,99051.38
2023-02-18T05:24:22.449Z,99033.94
2023-02-18T05:26:51.495Z,99049.06
2023-02-18T05:29:20.902Z,99037.50
2023-02-18T05:31:50.997Z,99038.50
2023-02-18T05:34:23.470Z,99022.75
2023-02-18T05:36:54.410Z,99011.47
2023-02-18T05:39:23.532Z,99028.13
2023-02-18T05:41:52.760Z,99023.44
2023-02-18T05:44:31.389Z,99005.69
2023-02-18T05:47:02.732Z,99006.75
2023-02-18T05:49:33.087Z,99017.88
2023-02-18T05:52:04.419Z,98990.53
2023-02-18T05:54:34.279Z,98984.66
2023-02-18T05:57:04.214Z,98987.81
2023-02-18T05:59:33.781Z,98980.88
2023-02-18T06:02:03.016Z,98944.72
2023-02-18T06:04:32.549Z,98975.06
2023-02-18T06:07:03.016Z,98969.22
2023-02-18T06:09:32.237Z,98905.53
2023-02-18T06:12:01.742Z,98958.41
2023-02-18T06:14:30.657Z,98974.69
2023-02-18T06:17:00.029Z,98976.25
2023-02-18T06:19:29.433Z,98977.47
2023-02-18T06:21:58.492Z,98952.97
2023-02-18T06:24:28.879Z,98952.44
2023-02-18T06:26:57.944Z,98973.72
2023-02-18T06:29:29.825Z,98998.91
2023-02-18T06:31:59.663Z,98968.81
2023-02-18T06:34:29.367Z,98975.53
2023-02-18T06:36:59.911Z,98982.50
2023-02-18T06:39:32.073Z,98974.56
2023-02-18T06:42:01.226Z,98981.19
2023-02-18T06:44:30.711Z,98972.88
2023-02-18T06:47:00.012Z,98959.00
2023-02-18T06:49:30.578Z,98977.03
2023-02-18T06:52:00.137Z,98965.88
2023-02-18T06:54:29.509Z,98965.75
2023-02-18T06:57:00.314Z,98975.34
2023-02-18T06:59:29.847Z,98990.69
2023-02-18T07:01:59.187Z,98986.69
2023-02-18T07:04:28.818Z,98983.03
2023-02-18T07:06:58.361Z,99026.31
2023-02-18T07:09:28.090Z,99016.16
2023-02-18T07:11:57.870Z,99018.00
2023-02-18T07:14:28.625Z,98995.03
2023-02-18T07:16:58.310Z,98989.16
2023-02-18T07:19:28.072Z,98994.47
2023-02-18T07:21:57.946Z,98976.69
2023-02-18T07:24:27.531Z,98965.59
2023-02-18T07:26:57.155Z,99003.28
2023-02-18T07:29:27.656Z,98999.09
2023-02-18T07:31:56.814Z,98966.84
2023-02-18T07:34:25.732Z,98974.97
2023-02-18T07:36:56.210Z,99012.72
2023-02-18T07:39:25.490Z,99003.03
2023-02-18T07:41:54.699Z,98975.84
2023-02-18T07:44:28.034Z,99004.94
2023-02-18T07:46:57.574Z,99016.66
2023-02-18T07:49:27.214Z,98995.53
2023-02-18T07:51:56.991Z,98997.53
2023-02-18T07:54:26.686Z,99008.69
2023-02-18T07:56:56.085Z,98993.41
2023-02-18T07:59:27.186Z,98979.41
2023-02-18T08:01:56.371Z,99004.81
2023-02-18T08:04:25.840Z,98986.31
2023-02-18T08:06:55.591Z,98992.16
2023-02-18T08:09:24.831Z,98986.59
2023-02-18T08:11:54.751Z,98982.81
2023-02-18T08:14:24.716Z,98986.34
2023-02-18T08:16:55.308Z,98939.63
2023-02-18T08:19:24.469Z,98966.91
2023-02-18T08:21:53.811Z,98965.81
2023-02-18T08:24:23.239Z,98971.50
2023-02-18T08:27:00.432Z,98917.25
2023-02-18T08:29:30.943Z,98979.59
2023-02-18T08:32:01.883Z,98999.47
2023-02-18T08:34:31.603Z,98975.56
2023-02-18T08:37:02.863Z,98989.84
2023-02-18T08:39:38.438Z,98978.41
2023-02-18T08:42:09.185Z,98995.47
2023-02-18T08:44:38.936Z,99006.66
2023-02-18T08:48:16.547Z,98989.00
2023-02-18T08:49:59.211Z,98993.25
2023-02-18T08:52:29.092Z,98991.13
2023-02-18T08:54:58.375Z,98996.88
2023-02-18T08:57:29.092Z,99000.19
2023-02-18T08:59:58.164Z,98996.44
2023-02-18T09:02:29.814Z,99016.72
2023-02-18T09:04:59.168Z,98996.56
2023-02-18T09:07:28.546Z,99002.72
2023-02-18T09:09:57.748Z,99005.81
2023-02-18T09:12:26.854Z,98991.84
2023-02-18T09:14:56.160Z,98955.84
2023-02-18T09:17:25.350Z,98980.38
2023-02-18T09:19:57.265Z,98998.69
2023-02-18T09:22:27.342Z,98987.63
2023-02-18T09:24:56.480Z,98992.97
2023-02-18T09:27:27.773Z,98985.09
2023-02-18T09:29:56.983Z,98997.41
2023-02-18T09:32:35.368Z,99018.91
2023-02-18T09:35:07.155Z,99009.56
2023-02-18T09:37:36.886Z,99028.63
2023-02-18T09:40:07.085Z,99027.22
2023-02-18T09:42:36.561Z,99017.13
2023-02-18T09:45:12.671Z,99005.44
2023-02-18T09:47:45.020Z,99004.06
2023-02-18T09:50:21.781Z,98997.69
2023-02-18T09:52:51.415Z,99012.50
2023-02-18T09:55:24.249Z,99013.03
2023-02-18T09:57:55.625Z,99000.25
2023-02-18T10:00:32.739Z,98990.03
2023-02-18T10:03:07.037Z,98977.16
2023-02-18T10:05:39.235Z,99004.94
2023-02-18T10:08:19.991Z,99008.19
2023-02-18T10:10:48.995Z,98973.09
2023-02-18T10:13:21.350Z,98963.50
2023-02-18T10:15:51.821Z,98973.69
2023-02-18T10:21:09.107Z,98998.69
2023-02-18T10:23:42.585Z,98978.16
2023-02-18T10:26:17.570Z,98997.16
2023-02-18T10:28:47.716Z,99002.56
2023-02-18T10:31:23.375Z,99005.19
2023-02-18T10:34:01.137Z,99008.84
2023-02-18T10:36:39.127Z,98954.91
2023-02-18T10:39:22.514Z,99011.16
2023-02-18T10:42:02.433Z,99001.84
2023-02-18T10:44:45.757Z,99011.94
2023-02-18T10:47:23.202Z,99017.94
2023-02-18T10:49:59.060Z,98991.56
2023-02-18T10:52:32.865Z,99004.69
2023-02-18T10:55:05.374Z,99023.88
2023-02-18T10:57:34.818Z,99007.91
2023-02-18T11:00:17.553Z,99008.50
2023-02-18T11:02:48.408Z,98971.31
2023-02-18T11:05:25.913Z,98959.00
2023-02-18T11:07:59.337Z,98968.63
2023-02-18T11:10:32.062Z,98993.19
2023-02-18T11:13:04.278Z,98982.31
2023-02-18T11:15:34.432Z,98988.94
2023-02-18T11:18:15.133Z,98974.97
2023-02-18T11:20:57.915Z,98979.81
2023-02-18T11:23:28.985Z,98990.69
2023-02-18T11:26:01.769Z,98963.84
2023-02-18T11:28:43.374Z,98986.22
2023-02-18T11:31:21.072Z,98942.59
2023-02-18T11:33:53.706Z,98983.63
2023-02-18T11:36:30.036Z,98956.28
2023-02-18T11:39:04.682Z,98978.25
2023-02-18T11:41:37.219Z,98977.81
2023-02-18T11:44:09.919Z,98957.69
2023-02-18T11:46:39.172Z,98997.66
2023-02-18T11:49:24.720Z,99002.34
2023-02-18T11:51:54.650Z,99008.84
2023-02-18T11:54:30.195Z,99006.94
2023-02-18T11:57:03.569Z,98961.63
2023-02-18T11:59:36.613Z,99002.28
2023-02-18T12:02:27.268Z,98994.59
2023-02-18T12:05:02.936Z,98992.94
2023-02-18T12:07:40.818Z,98996.31
2023-02-18T12:10:17.069Z,98995.72
2023-02-18T12:12:49.679Z,98993.25
2023-02-18T12:15:28.261Z,98985.69
2023-02-18T12:18:16.484Z,98992.69
2023-02-18T12:20:56.326Z,98960.78
2023-02-18T12:23:35.496Z,98964.22
2023-02-18T12:26:19.700Z,98989.50
2023-02-18T12:29:13.052Z,98963.53
2023-02-18T12:32:17.731Z,98977.72
2023-02-18T12:35:03.175Z,99003.16
2023-02-18T12:37:56.048Z,99006.41
2023-02-18T12:40:47.110Z,98985.66
2023-02-18T12:43:27.854Z,98967.22
2023-02-18T12:46:16.627Z,99010.72
2023-02-18T12:48:59.751Z,99017.66
2023-02-18T12:51:38.432Z,99020.28
2023-02-18T12:54:32.377Z,99024.81
2023-02-18T12:57:34.457Z,99038.06
2023-02-18T13:00:36.104Z,99021.97
2023-02-18T13:03:33.940Z,99047.00
2023-02-18T13:06:14.615Z,99039.56
2023-02-18T13:08:59.119Z,99015.44
2023-02-18T13:11:38.330Z,99047.31
2023-02-18T13:14:14.352Z,99061.41
2023-02-18T13:16:47.649Z,99059.41
2023-02-18T13:19:24.105Z,99071.00
2023-02-18T13:21:55.804Z,99043.84
2023-02-18T13:24:32.424Z,99069.81
2023-02-18T13:27:09.613Z,99068.34
2023-02-18T13:29:46.250Z,99062.97
2023-02-18T13:32:25.634Z,99080.88
2023-02-18T13:35:01.683Z,99007.81
2023-02-18T13:37:39.291Z,99091.38
2023-02-18T13:40:19.401Z,99090.72
2023-02-18T13:42:52.073Z,99098.59
2023-02-18T13:45:28.201Z,99033.16
2023-02-18T13:47:59.240Z,99095.88
2023-02-18T13:50:33.795Z,99082.16
2023-02-18T13:53:22.099Z,99070.69
2023-02-18T13:56:01.767Z,99076.00
2023-02-18T13:58:40.371Z,99071.50
2023-02-18T14:01:19.018Z,99080.56
2023-02-18T14:04:00.420Z,99113.41
2023-02-18T14:06:34.255Z,99076.88
2023-02-18T14:09:37.620Z,99078.31
2023-02-18T14:12:28.248Z,99103.59
2023-02-18T14:14:59.706Z,99083.81
2023-02-18T14:17:33.531Z,99106.97
2023-02-18T14:20:47.962Z,99123.03
2023-02-18T14:23:43.594Z,99110.31
2023-02-18T14:26:23.296Z,99107.22
2023-02-18T14:28:57.545Z,99106.63
2023-02-18T14:31:52.764Z,99091.09
2023-02-18T14:35:08.340Z,99094.28
2023-02-18T14:38:21.844Z,99073.94
2023-02-18T14:41:23.129Z,99099.13
2023-02-18T14:44:12.604Z,99099.47
2023-02-18T14:46:55.775Z,99118.81
2023-02-18T14:49:37.860Z,99088.59
2023-02-18T14:52:13.227Z,99095.38
2023-02-18T14:54:44.819Z,99061.19
2023-02-18T14:57:20.607Z,99094.22
2023-02-18T14:59:58.593Z,99030.13
2023-02-18T15:02:31.234Z,99109.81
2023-02-18T15:05:18.121Z,99085.72
2023-02-18T15:07:58.068Z,99114.41
2023-02-18T15:10:40.860Z,99108.91
2023-02-18T15:13:20.072Z,99112.59
2023-02-18T15:15:53.625Z,99107.91
2023-02-18T15:18:31.480Z,99066.50
2023-02-18T15:21:03.081Z,99093.59
2023-02-18T15:23:36.760Z,99102.38
2023-02-18T15:26:07.678Z,99118.50
2023-02-18T15:28:52.133Z,99085.84
2023-02-18T15:31:28.289Z,99090.13
2023-02-18T15:33:57.921Z,99091.13
2023-02-18T15:36:28.550Z,99107.97
2023-02-18T15:38:58.646Z,99116.28
2023-02-18T15:41:29.803Z,99099.22
2023-02-18T15:44:05.134Z,99115.38
2023-02-18T15:46:35.589Z,99105.84
2023-02-18T15:49:09.364Z,99112.44
2023-02-18T15:51:39.357Z,99123.66
2023-02-18T15:54:15.954Z,99132.03
2023-02-18T15:56:47.776Z,99132.75
2023-02-18T15:59:22.137Z,99106.81
2023-02-18T16:01:52.644Z,99093.78
2023-02-18T16:04:22.844Z,99120.88
2023-02-18T16:06:54.187Z,99120.59
2023-02-18T16:09:27.554Z,99128.81
2023-02-18T16:12:00.488Z,99135.91
2023-02-18T16:14:34.784Z,99102.03
2023-02-18T16:17:11.200Z,99144.13
2023-02-18T16:20:03.296Z,99120.50
2023-02-18T16:22:39.187Z,99057.19
2023-02-18T16:25:17.778Z,99140.75
2023-02-18T16:27:54.192Z,99139.59
2023-02-18T16:30:28.033Z,99146.53
2023-02-18T16:32:58.095Z,99141.88
2023-02-18T16:35:32.791Z,99122.34
2023-02-18T16:38:08.156Z,99149.31
2023-02-18T16:40:40.970Z,99145.53
2023-02-18T16:43:13.619Z,99135.50
2023-02-18T16:45:49.215Z,99143.31
2023-02-18T16:48:23.959Z,99106.38
2023-02-18T16:50:57.999Z,99123.97
2023-02-18T16:53:27.448Z,99130.63
2023-02-18T16:55:58.938Z,99131.41
2023-02-18T16:58:30.401Z,99155.69
2023-02-18T17:01:02.514Z,99151.50
2023-02-18T17:03:32.899Z,99165.09
2023-02-18T17:06:04.014Z,99160.75
2023-02-18T17:08:33.513Z,99160.75
2023-02-18T17:11:02.855Z,99159.06
2023-02-18T17:13:32.606Z,99158.47
2023-02-18T17:16:03.691Z,99163.16
2023-02-18T17:18:35.479Z,99169.66
2023-02-18T17:21:05.252Z,99162.56
2023-02-18T17:23:34.972Z,99156.41
2023-02-18T17:26:04.796Z,99163.91
2023-02-18T17:28:34.710Z,99143.97
2023-02-18T17:31:06.579Z,99158.59
2023-02-18T17:33:36.796Z,99142.81
2023-02-18T17:36:10.293Z,99165.09
2023-02-18T17:38:42.033Z,99160.97
2023-02-18T17:41:12.604Z,99147.50
2023-02-18T17:43:42.575Z,99170.38
2023-02-18T17:46:15.229Z,99149.41
2023-02-18T17:48:46.091Z,99127.19
2023-02-18T17:51:24.486Z,99165.22
2023-02-18T17:53:54.385Z,99158.31
2023-02-18T17:56:24.884Z,99166.19
2023-02-18T17:58:54.418Z,99164.13
2023-02-18T18:01:25.340Z,99151.69
2023-02-18T18:03:54.521Z,99170.63
2023-02-18T18:06:23.779Z,99151.25
2023-02-18T18:08:53.326Z,99154.00
2023-02-18T18:11:25.045Z,99167.50
2023-02-18T18:13:54.815Z,99164.00
2023-02-18T18:16:26.525Z,99082.09
2023-02-18T18:18:56.160Z,99132.84
2023-02-18T18:21:36.476Z,99152.09
2023-02-18T18:24:08.600Z,99154.13
2023-02-18T18:26:38.337Z,99171.94
2023-02-18T18:29:08.151Z,99175.16
2023-02-18T18:31:38.601Z,99169.44
2023-02-18T18:34:07.932Z,99141.25
2023-02-18T18:36:46.151Z,99170.59
2023-02-18T18:39:24.818Z,99175.69
2023-02-18T18:41:55.882Z,99163.91
2023-02-18T18:44:25.211Z,99174.34
2023-02-18T18:46:56.689Z,99117.94
2023-02-18T18:49:26.421Z,99141.31
2023-02-18T18:51:56.909Z,99156.28
2023-02-18T18:54:26.399Z,99154.41
2023-02-18T18:56:55.569Z,99126.34
2023-02-18T18:59:25.928Z,99144.50
2023-02-18T19:01:57.327Z,99159.56
2023-02-18T19:04:28.554Z,99169.19
2023-02-18T19:06:58.070Z,99156.59
2023-02-18T19:09:27.446Z,99161.94
2023-02-18T19:11:56.854Z,99163.38
2023-02-18T19:14:26.560Z,99157.94
2023-02-18T19:16:57.443Z,99171.56
2023-02-18T19:19:27.079Z,99151.63
2023-02-18T19:21:56.765Z,99170.16
2023-02-18T19:24:26.643Z,99140.06
2023-02-18T19:26:55.838Z,99159.78
2023-02-18T19:29:25.689Z,99158.22
2023-02-18T19:31:56.412Z,99140.84
2023-02-18T19:34:26.083Z,99151.97
2023-02-18T19:36:56.687Z,99161.72
2023-02-18T19:39:27.237Z,99149.84
2023-02-18T19:41:57.184Z,99154.00
2023-02-18T19:44:26.740Z,99148.75
2023-02-18T19:47:01.333Z,99138.25
2023-02-18T19:49:32.012Z,99085.94
2023-02-18T19:52:04.391Z,99129.47
2023-02-18T19:54:35.601Z,99134.75
2023-02-18T19:57:07.559Z,99108.53
2023-02-18T19:59:37.446Z,99130.94
2023-02-18T20:02:15.005Z,99132.13
2023-02-18T20:04:46.060Z,99108.66
2023-02-18T20:07:18.835Z,99137.72
2023-02-18T20:09:49.338Z,99126.53
2023-02-18T20:12:19.175Z,99135.28
2023-02-18T20:14:51.249Z,99136.19
2023-02-18T20:17:21.947Z,99135.88
2023-02-18T20:19:52.394Z,99129.72
2023-02-18T20:22:22.946Z,99119.97
2023-02-18T20:24:52.813Z,99140.31
2023-02-18T20:27:22.369Z,99142.44
2023-02-18T20:29:52.541Z,99139.81
2023-02-18T20:32:23.465Z,99129.47
2023-02-18T20:34:53.026Z,99117.69
2023-02-18T20:37:22.446Z,99129.72
2023-02-18T20:39:51.928Z,99137.19
2023-02-18T20:42:22.043Z,99142.59
2023-02-18T20:44:51.954Z,99121.19
2023-02-18T20:47:22.868Z,99134.50
2023-02-18T20:49:52.668Z,99125.88
2023-02-18T20:52:21.963Z,99097.25
2023-02-18T20:54:51.685Z,99137.16
2023-02-18T20:57:20.623Z,99131.16
2023-02-18T20:59:50.216Z,99127.56
2023-02-18T21:02:20.194Z,99120.44
2023-02-18T21:04:50.828Z,99138.03
2023-02-18T21:07:20.036Z,99142.25
2023-02-18T21:09:49.199Z,99131.91
2023-02-18T21:12:18.572Z,99097.97
2023-02-18T21:14:48.053Z,99128.28
2023-02-18T21:17:17.434Z,99142.94
2023-02-18T21:19:46.552Z,99114.56
2023-02-18T21:22:17.160Z,99135.38
2023-02-18T21:24:46.336Z,99143.44
2023-02-18T21:27:15.726Z,99135.28
2023-02-18T21:29:45.113Z,99131.63
2023-02-18T21:32:14.748Z,99107.34
2023-02-18T21:34:44.107Z,99145.34
2023-02-18T21:37:13.223Z,99140.19
2023-02-18T21:39:43.928Z,99142.13
2023-02-18T21:42:13.321Z,99133.34
2023-02-18T21:44:43.119Z,99151.34
2023-02-18T21:47:13.130Z,99129.81
2023-02-18T21:49:42.572Z,99133.91
2023-02-18T21:52:11.714Z,99161.84
2023-02-18T21:54:45.524Z,99152.41
2023-02-18T21:57:17.010Z,99121.88
2023-02-18T21:59:46.713Z,99135.97
2023-02-18T22:02:17.765Z,99166.03
2023-02-18T22:04:48.010Z,99168.75
2023-02-18T22:07:18.738Z,99074.06
2023-02-18T22:09:50.813Z,99125.59
2023-02-18T22:12:20.708Z,99168.66
2023-02-18T22:14:50.098Z,99166.03
2023-02-18T22:17:36.753Z,99167.91
2023-02-18T22:20:08.643Z,99174.88
2023-02-18T22:22:46.702Z,99173.19
2023-02-18T22:25:22.352Z,99175.47
2023-02-18T22:27:51.704Z,99182.09
2023-02-18T22:30:21.640Z,99173.56
2023-02-18T22:32:51.180Z,99180.88
2023-02-18T22:35:20.574Z,99184.81
2023-02-18T22:37:49.897Z,99174.22
2023-02-18T22:40:19.782Z,99172.75
2023-02-18T22:42:50.406Z,99164.91
2023-02-18T22:45:19.803Z,99169.50
2023-02-18T22:47:49.212Z,99163.09
2023-02-18T22:50:18.578Z,99178.03
2023-02-18T22:52:47.542Z,99171.38
2023-02-18T22:55:17.082Z,99184.81
2023-02-18T22:57:46.424Z,99181.00
2023-02-18T23:00:17.388Z,99187.09
2023-02-18T23:02:51.878Z,99124.91
2023-02-18T23:05:21.345Z,99190.19
2023-02-18T23:07:51.986Z,99191.16
2023-02-18T23:10:22.417Z,99141.84
2023-02-18T23:12:51.802Z,99198.00
2023-02-18T23:15:22.403Z,99196.66
2023-02-18T23:17:51.684Z,99196.75
2023-02-18T23:20:41.076Z,99201.19
2023-02-18T23:23:10.534Z,99208.50
2023-02-18T23:25:39.732Z,99199.41
2023-02-18T23:28:09.032Z,99189.50
2023-02-18T23:30:39.679Z,99158.81
2023-02-18T23:33:08.707Z,99192.25
2023-02-18T23:35:39.337Z,99190.25
2023-02-18T23:38:11.033Z,99191.47
2023-02-18T23:40:40.250Z,99208.19
2023-02-18T23:43:09.438Z,99193.81
2023-02-18T23:45:40.002Z,99202.81
2023-02-18T23:48:09.217Z,99203.38
2023-02-18T23:50:38.545Z,99221.59
2023-02-18T23:53:07.627Z,99192.31
2023-02-18T23:55:36.878Z,99213.00
2023-02-18T23:58:06.088Z,99220.81
